Gillam, Manitoba

8:30 AM CDT on August 05, 2015 (GMT -0500)
Gillam | | Change Station
CLOSE
Current Station
Airport
Location: Gillam,
Elevation: 476 ft
Nearby Weather Stations

Elev 476 ft 56.36 °N, 94.71 °W | Updated 30 minutes ago

Overcast
Overcast
48 °F
Feels Like 48 °F
N
7
Wind Variable Wind from North

Today
High -- | Low -- °F
--% Chance of Precip.
Yesterday
High -- | Low -- °F
Precip. -- in
5:28 AM 9:19 PM
Waning Gibbous, 67% visible
Pressure 30.17 in
Visibility 10.0 miles
Clouds Overcast 2000 ft
Dew Point 45 °F
Humidity 87%
Rainfall 0.00 in
Snow Depth Not available.
UV 0 out of 12
Pollen Not available.
Air Quality Not available.
Flu Activity Not available.
METAR CYGX 051300Z 36006KT 350V060 10SM BR OVC020 09/07 A3015 RMK ST8 SLP217

More Conditions Fewer Conditions

Pressure 30.17 in
Visibility 10.0 miles
Clouds Overcast 2000 ft
Dew Point 45 °F
Humidity 87%
Rainfall 0.00 in
Snow Depth Not available.
UV 0 out of 12
Pollen Not available.
Air Quality Not available.
Flu Activity Not available.
METAR CYGX 051300Z 36006KT 350V060 10SM BR OVC020 09/07 A3015 RMK ST8 SLP217

More Conditions Fewer Conditions

10-Day Weather Forecast

×

Almanac

Astronomy

Aug. 05, 2015 Rise Set
Actual Time
Civil Twilight
Nautical Twilight
Astronomical Twilight
Moon
Length of Visible Light
Length of Day
Tomorrow will be .
, % of the Moon is Illuminated

Today's Extremes

Country Highs Country Lows

Community

WunderPhotos

Upload Photos

1,844,184 photos uploaded!

WunderBlogs® & News

Nearby

Air Quality

  Air Quality AQ Index Pollutant
Not available.

Snow Depth

Station Depth Elevation

Earthquake Activity

City Distance Mag. Time & Date
Minimum magnitude displayed is 2.5.

Coastal Water Temperatures

Place Temperature

Stations

Nearby Weather Stations

Station Location Temp. Windchill Dew Point Humidity Wind Precip. Elev Updated Type